sensor_id;sensor_type;location;lat;lon;timestamp;temperature;humidity
48328;DHT22;34136;51.022;7.082;2023-02-11T00:59:59;4.80;1.00
48328;DHT22;34136;51.022;7.082;2023-02-11T01:02:45;4.80;1.00
48328;DHT22;34136;51.022;7.082;2023-02-11T01:05:32;4.70;1.00
48328;DHT22;34136;51.022;7.082;2023-02-11T01:08:18;4.70;1.00
48328;DHT22;34136;51.022;7.082;2023-02-11T01:11:10;4.60;1.00
48328;DHT22;34136;51.022;7.082;2023-02-11T01:13:57;4.70;1.00
48328;DHT22;34136;51.022;7.082;2023-02-11T01:16:44;4.60;1.10
48328;DHT22;34136;51.022;7.082;2023-02-11T01:19:30;4.60;1.00
48328;DHT22;34136;51.022;7.082;2023-02-11T01:22:17;4.70;1.80
48328;DHT22;34136;51.022;7.082;2023-02-11T01:25:03;4.60;1.40
48328;DHT22;34136;51.022;7.082;2023-02-11T01:27:49;4.60;2.10
48328;DHT22;34136;51.022;7.082;2023-02-11T01:30:36;4.60;2.80
48328;DHT22;34136;51.022;7.082;2023-02-11T01:33:27;4.60;2.60
48328;DHT22;34136;51.022;7.082;2023-02-11T01:36:13;4.60;3.70
48328;DHT22;34136;51.022;7.082;2023-02-11T01:38:59;4.60;5.50
48328;DHT22;34136;51.022;7.082;2023-02-11T01:41:46;4.60;5.70
48328;DHT22;34136;51.022;7.082;2023-02-11T01:44:37;4.50;4.90
48328;DHT22;34136;51.022;7.082;2023-02-11T01:47:31;4.60;5.30
48328;DHT22;34136;51.022;7.082;2023-02-11T01:50:18;4.50;5.40
48328;DHT22;34136;51.022;7.082;2023-02-11T01:53:06;4.50;4.70
48328;DHT22;34136;51.022;7.082;2023-02-11T01:55:58;4.50;4.70
48328;DHT22;34136;51.022;7.082;2023-02-11T01:58:46;4.50;5.70
48328;DHT22;34136;51.022;7.082;2023-02-11T02:01:39;4.50;9.20
48328;DHT22;34136;51.022;7.082;2023-02-11T02:08:36;4.70;11.40
48328;DHT22;34136;51.022;7.082;2023-02-11T02:11:24;4.80;10.90
48328;DHT22;34136;51.022;7.082;2023-02-11T02:14:10;4.90;13.80
48328;DHT22;34136;51.022;7.082;2023-02-11T02:17:36;5.10;13.30
48328;DHT22;34136;51.022;7.082;2023-02-11T02:30:13;5.20;12.10
48328;DHT22;34136;51.022;7.082;2023-02-11T02:33:20;5.30;11.80
48328;DHT22;34136;51.022;7.082;2023-02-11T02:36:22;5.30;11.00
48328;DHT22;34136;51.022;7.082;2023-02-11T02:39:21;5.40;10.50
48328;DHT22;34136;51.022;7.082;2023-02-11T02:42:09;5.40;10.70
48328;DHT22;34136;51.022;7.082;2023-02-11T02:44:55;5.50;10.20
48328;DHT22;34136;51.022;7.082;2023-02-11T02:47:43;5.50;8.70
48328;DHT22;34136;51.022;7.082;2023-02-11T02:50:33;5.40;9.00
48328;DHT22;34136;51.022;7.082;2023-02-11T02:53:35;5.40;8.90
48328;DHT22;34136;51.022;7.082;2023-02-11T03:06:22;5.40;9.70
48328;DHT22;34136;51.022;7.082;2023-02-11T03:09:18;5.40;9.40
48328;DHT22;34136;51.022;7.082;2023-02-11T03:12:11;5.40;9.10
48328;DHT22;34136;51.022;7.082;2023-02-11T03:15:05;5.40;9.60
48328;DHT22;34136;51.022;7.082;2023-02-11T03:17:54;5.40;9.70
48328;DHT22;34136;51.022;7.082;2023-02-11T03:20:53;5.40;9.40
48328;DHT22;34136;51.022;7.082;2023-02-11T03:24:04;5.40;9.80
48328;DHT22;34136;51.022;7.082;2023-02-11T03:26:52;5.40;9.10
48328;DHT22;34136;51.022;7.082;2023-02-11T03:30:12;5.50;9.10
48328;DHT22;34136;51.022;7.082;2023-02-11T03:33:10;5.60;8.60
48328;DHT22;34136;51.022;7.082;2023-02-11T03:36:08;5.50;9.50
48328;DHT22;34136;51.022;7.082;2023-02-11T03:38:57;5.50;9.00
48328;DHT22;34136;51.022;7.082;2023-02-11T03:41:51;5.60;8.60
48328;DHT22;34136;51.022;7.082;2023-02-11T03:44:44;5.50;8.30
48328;DHT22;34136;51.022;7.082;2023-02-11T03:47:34;5.60;8.60
48328;DHT22;34136;51.022;7.082;2023-02-11T03:50:23;5.50;8.40
48328;DHT22;34136;51.022;7.082;2023-02-11T03:53:14;5.50;8.00
48328;DHT22;34136;51.022;7.082;2023-02-11T03:56:04;5.60;8.10
48328;DHT22;34136;51.022;7.082;2023-02-11T03:58:51;5.60;8.10
48328;DHT22;34136;51.022;7.082;2023-02-11T04:01:37;5.60;7.70
48328;DHT22;34136;51.022;7.082;2023-02-11T04:04:28;5.50;7.80
48328;DHT22;34136;51.022;7.082;2023-02-11T04:07:15;5.60;8.00
48328;DHT22;34136;51.022;7.082;2023-02-11T04:10:03;5.60;7.80
48328;DHT22;34136;51.022;7.082;2023-02-11T04:12:49;5.60;7.70
48328;DHT22;34136;51.022;7.082;2023-02-11T04:15:36;5.60;7.60
48328;DHT22;34136;51.022;7.082;2023-02-11T04:18:22;5.60;7.40
48328;DHT22;34136;51.022;7.082;2023-02-11T04:21:13;5.60;7.50
48328;DHT22;34136;51.022;7.082;2023-02-11T04:24:04;5.60;8.00
48328;DHT22;34136;51.022;7.082;2023-02-11T04:26:59;5.50;8.40
48328;DHT22;34136;51.022;7.082;2023-02-11T04:29:50;5.60;8.30
48328;DHT22;34136;51.022;7.082;2023-02-11T04:32:37;5.70;7.90
48328;DHT22;34136;51.022;7.082;2023-02-11T04:35:29;5.70;8.20
48328;DHT22;34136;51.022;7.082;2023-02-11T04:38:16;5.70;7.90
48328;DHT22;34136;51.022;7.082;2023-02-11T04:41:06;5.70;8.00
48328;DHT22;34136;51.022;7.082;2023-02-11T04:43:52;5.70;8.30
48328;DHT22;34136;51.022;7.082;2023-02-11T04:46:43;5.70;8.10
48328;DHT22;34136;51.022;7.082;2023-02-11T04:49:33;5.80;7.80
48328;DHT22;34136;51.022;7.082;2023-02-11T04:52:21;5.70;8.00
48328;DHT22;34136;51.022;7.082;2023-02-11T04:55:12;5.80;8.20
48328;DHT22;34136;51.022;7.082;2023-02-11T04:57:59;5.80;7.60
48328;DHT22;34136;51.022;7.082;2023-02-11T05:00:45;5.80;7.90
48328;DHT22;34136;51.022;7.082;2023-02-11T05:03:57;5.80;7.70
48328;DHT22;34136;51.022;7.082;2023-02-11T05:06:44;5.80;8.10
48328;DHT22;34136;51.022;7.082;2023-02-11T05:09:34;5.70;8.10
48328;DHT22;34136;51.022;7.082;2023-02-11T05:12:21;5.70;8.00
48328;DHT22;34136;51.022;7.082;2023-02-11T05:15:10;5.80;8.10
48328;DHT22;34136;51.022;7.082;2023-02-11T05:18:11;5.80;8.70
48328;DHT22;34136;51.022;7.082;2023-02-11T05:20:57;5.80;8.80
48328;DHT22;34136;51.022;7.082;2023-02-11T05:23:45;5.80;9.50
48328;DHT22;34136;51.022;7.082;2023-02-11T05:26:31;5.70;9.50
48328;DHT22;34136;51.022;7.082;2023-02-11T05:29:27;5.80;9.30
48328;DHT22;34136;51.022;7.082;2023-02-11T05:32:13;5.80;9.90
48328;DHT22;34136;51.022;7.082;2023-02-11T05:35:05;5.80;9.80
48328;DHT22;34136;51.022;7.082;2023-02-11T05:38:01;5.80;10.00
48328;DHT22;34136;51.022;7.082;2023-02-11T05:40:56;5.70;10.80
48328;DHT22;34136;51.022;7.082;2023-02-11T05:43:49;5.80;11.70
48328;DHT22;34136;51.022;7.082;2023-02-11T05:46:36;5.80;11.80
48328;DHT22;34136;51.022;7.082;2023-02-11T05:49:28;5.90;11.50
48328;DHT22;34136;51.022;7.082;2023-02-11T05:52:15;5.90;11.80
48328;DHT22;34136;51.022;7.082;2023-02-11T05:55:09;5.80;11.80
48328;DHT22;34136;51.022;7.082;2023-02-11T05:57:59;5.90;12.10
48328;DHT22;34136;51.022;7.082;2023-02-11T06:00:47;5.90;11.70
48328;DHT22;34136;51.022;7.082;2023-02-11T06:04:00;5.80;12.60
48328;DHT22;34136;51.022;7.082;2023-02-11T06:06:51;5.90;12.70
48328;DHT22;34136;51.022;7.082;2023-02-11T06:09:48;5.90;12.90
48328;DHT22;34136;51.022;7.082;2023-02-11T06:12:37;5.90;13.40
48328;DHT22;34136;51.022;7.082;2023-02-11T06:15:27;5.90;15.20
48328;DHT22;34136;51.022;7.082;2023-02-11T06:18:14;5.80;17.10
48328;DHT22;34136;51.022;7.082;2023-02-11T06:21:05;5.80;18.10
48328;DHT22;34136;51.022;7.082;2023-02-11T06:24:01;5.80;18.40
48328;DHT22;34136;51.022;7.082;2023-02-11T06:26:52;5.80;18.50
48328;DHT22;34136;51.022;7.082;2023-02-11T06:29:38;5.80;18.50
48328;DHT22;34136;51.022;7.082;2023-02-11T06:32:26;5.90;18.50
48328;DHT22;34136;51.022;7.082;2023-02-11T06:35:13;5.90;18.60
48328;DHT22;34136;51.022;7.082;2023-02-11T06:38:09;5.90;18.70
48328;DHT22;34136;51.022;7.082;2023-02-11T06:40:58;5.90;18.60
48328;DHT22;34136;51.022;7.082;2023-02-11T06:43:48;5.90;19.10
48328;DHT22;34136;51.022;7.082;2023-02-11T06:46:36;5.90;19.50
48328;DHT22;34136;51.022;7.082;2023-02-11T06:49:26;5.90;20.20
48328;DHT22;34136;51.022;7.082;2023-02-11T06:52:15;5.90;20.90
48328;DHT22;34136;51.022;7.082;2023-02-11T06:55:02;5.90;21.40
48328;DHT22;34136;51.022;7.082;2023-02-11T06:57:49;6.00;21.70
48328;DHT22;34136;51.022;7.082;2023-02-11T07:00:37;6.00;21.70
48328;DHT22;34136;51.022;7.082;2023-02-11T07:03:28;5.90;22.10
48328;DHT22;34136;51.022;7.082;2023-02-11T07:06:19;5.90;22.50
48328;DHT22;34136;51.022;7.082;2023-02-11T07:09:07;6.00;22.70
48328;DHT22;34136;51.022;7.082;2023-02-11T07:11:55;6.00;22.90
48328;DHT22;34136;51.022;7.082;2023-02-11T07:14:47;6.00;22.80
48328;DHT22;34136;51.022;7.082;2023-02-11T07:17:34;6.00;22.90
48328;DHT22;34136;51.022;7.082;2023-02-11T07:20:22;6.00;22.90
48328;DHT22;34136;51.022;7.082;2023-02-11T07:23:12;6.00;22.90
48328;DHT22;34136;51.022;7.082;2023-02-11T07:26:10;6.00;22.70
48328;DHT22;34136;51.022;7.082;2023-02-11T07:29:20;6.10;22.70
48328;DHT22;34136;51.022;7.082;2023-02-11T07:32:12;6.00;23.20
48328;DHT22;34136;51.022;7.082;2023-02-11T07:35:02;6.00;23.40
48328;DHT22;34136;51.022;7.082;2023-02-11T07:37:52;6.00;24.20
48328;DHT22;34136;51.022;7.082;2023-02-11T07:40:45;6.00;23.50
48328;DHT22;34136;51.022;7.082;2023-02-11T07:43:31;6.00;23.30
48328;DHT22;34136;51.022;7.082;2023-02-11T07:46:23;5.90;24.10
48328;DHT22;34136;51.022;7.082;2023-02-11T07:49:15;6.00;24.10
48328;DHT22;34136;51.022;7.082;2023-02-11T07:52:03;6.00;24.10
48328;DHT22;34136;51.022;7.082;2023-02-11T07:55:03;6.00;24.10
48328;DHT22;34136;51.022;7.082;2023-02-11T07:57:50;6.10;24.00
48328;DHT22;34136;51.022;7.082;2023-02-11T08:00:37;6.00;24.10
48328;DHT22;34136;51.022;7.082;2023-02-11T08:03:23;6.00;24.10
48328;DHT22;34136;51.022;7.082;2023-02-11T08:06:38;6.10;24.10
48328;DHT22;34136;51.022;7.082;2023-02-11T08:09:39;6.10;23.80
48328;DHT22;34136;51.022;7.082;2023-02-11T08:12:32;6.10;23.70
48328;DHT22;34136;51.022;7.082;2023-02-11T08:15:18;6.10;23.60
48328;DHT22;34136;51.022;7.082;2023-02-11T08:18:05;6.10;23.60
48328;DHT22;34136;51.022;7.082;2023-02-11T08:21:04;6.10;23.80
48328;DHT22;34136;51.022;7.082;2023-02-11T08:23:52;6.10;24.00
48328;DHT22;34136;51.022;7.082;2023-02-11T08:26:38;6.10;23.90
48328;DHT22;34136;51.022;7.082;2023-02-11T08:29:24;6.10;24.00
48328;DHT22;34136;51.022;7.082;2023-02-11T08:32:11;6.20;24.10
48328;DHT22;34136;51.022;7.082;2023-02-11T08:34:59;6.10;24.20
48328;DHT22;34136;51.022;7.082;2023-02-11T08:37:49;6.10;24.50
48328;DHT22;34136;51.022;7.082;2023-02-11T08:40:35;6.10;24.60
48328;DHT22;34136;51.022;7.082;2023-02-11T08:43:28;6.20;24.60
48328;DHT22;34136;51.022;7.082;2023-02-11T08:46:18;6.20;24.40
48328;DHT22;34136;51.022;7.082;2023-02-11T08:49:05;6.20;24.70
48328;DHT22;34136;51.022;7.082;2023-02-11T08:51:51;6.20;24.90
48328;DHT22;34136;51.022;7.082;2023-02-11T08:54:55;6.20;25.10
48328;DHT22;34136;51.022;7.082;2023-02-11T08:57:41;6.20;25.30
48328;DHT22;34136;51.022;7.082;2023-02-11T09:00:36;6.20;26.20
48328;DHT22;34136;51.022;7.082;2023-02-11T09:03:47;6.20;26.10
48328;DHT22;34136;51.022;7.082;2023-02-11T09:06:34;6.20;26.20
48328;DHT22;34136;51.022;7.082;2023-02-11T09:09:23;6.20;26.10
48328;DHT22;34136;51.022;7.082;2023-02-11T09:12:12;6.30;26.40
48328;DHT22;34136;51.022;7.082;2023-02-11T09:14:59;6.30;26.00
48328;DHT22;34136;51.022;7.082;2023-02-11T09:17:45;6.30;26.00
48328;DHT22;34136;51.022;7.082;2023-02-11T09:20:32;6.30;26.00
48328;DHT22;34136;51.022;7.082;2023-02-11T09:23:18;6.30;26.10
48328;DHT22;34136;51.022;7.082;2023-02-11T09:26:05;6.40;26.40
48328;DHT22;34136;51.022;7.082;2023-02-11T09:28:52;6.40;26.20
48328;DHT22;34136;51.022;7.082;2023-02-11T09:31:39;6.40;26.10
48328;DHT22;34136;51.022;7.082;2023-02-11T09:34:28;6.40;26.00
48328;DHT22;34136;51.022;7.082;2023-02-11T09:37:15;6.50;26.10
48328;DHT22;34136;51.022;7.082;2023-02-11T09:40:01;6.50;25.80
48328;DHT22;34136;51.022;7.082;2023-02-11T09:45:49;6.50;25.50
48328;DHT22;34136;51.022;7.082;2023-02-11T09:49:02;6.50;25.50
48328;DHT22;34136;51.022;7.082;2023-02-11T09:51:52;6.50;25.70
48328;DHT22;34136;51.022;7.082;2023-02-11T09:54:56;6.50;25.50
48328;DHT22;34136;51.022;7.082;2023-02-11T09:57:43;6.50;25.40
48328;DHT22;34136;51.022;7.082;2023-02-11T10:00:51;6.50;25.30
48328;DHT22;34136;51.022;7.082;2023-02-11T10:04:12;6.50;25.30
48328;DHT22;34136;51.022;7.082;2023-02-11T10:13:14;6.60;24.90
48328;DHT22;34136;51.022;7.082;2023-02-11T10:16:20;6.70;24.90
48328;DHT22;34136;51.022;7.082;2023-02-11T10:23:24;6.70;24.60
48328;DHT22;34136;51.022;7.082;2023-02-11T10:26:16;6.70;24.70
48328;DHT22;34136;51.022;7.082;2023-02-11T10:29:13;6.70;25.00
48328;DHT22;34136;51.022;7.082;2023-02-11T10:32:21;6.70;25.00
48328;DHT22;34136;51.022;7.082;2023-02-11T10:35:21;6.70;25.00
48328;DHT22;34136;51.022;7.082;2023-02-11T10:38:14;6.70;25.00
48328;DHT22;34136;51.022;7.082;2023-02-11T10:41:04;6.70;24.60
48328;DHT22;34136;51.022;7.082;2023-02-11T10:43:54;6.70;24.80
48328;DHT22;34136;51.022;7.082;2023-02-11T10:47:27;6.70;25.10
48328;DHT22;34136;51.022;7.082;2023-02-11T10:50:46;6.80;24.80
48328;DHT22;34136;51.022;7.082;2023-02-11T10:53:38;6.70;24.80
48328;DHT22;34136;51.022;7.082;2023-02-11T10:56:59;6.70;25.10
48328;DHT22;34136;51.022;7.082;2023-02-11T10:59:46;6.70;25.30
48328;DHT22;34136;51.022;7.082;2023-02-11T11:02:37;6.80;25.20
48328;DHT22;34136;51.022;7.082;2023-02-11T11:05:47;6.80;24.70
48328;DHT22;34136;51.022;7.082;2023-02-11T11:08:49;6.90;24.30
48328;DHT22;34136;51.022;7.082;2023-02-11T11:11:51;6.90;24.40
48328;DHT22;34136;51.022;7.082;2023-02-11T11:14:57;6.90;24.00
48328;DHT22;34136;51.022;7.082;2023-02-11T11:18:12;6.90;23.90
48328;DHT22;34136;51.022;7.082;2023-02-11T11:21:01;7.00;24.00
48328;DHT22;34136;51.022;7.082;2023-02-11T11:23:53;7.00;24.10
48328;DHT22;34136;51.022;7.082;2023-02-11T11:26:51;7.00;23.70
48328;DHT22;34136;51.022;7.082;2023-02-11T11:29:42;7.00;23.60
48328;DHT22;34136;51.022;7.082;2023-02-11T11:32:32;7.00;23.30
48328;DHT22;34136;51.022;7.082;2023-02-11T11:35:27;7.00;23.40
48328;DHT22;34136;51.022;7.082;2023-02-11T11:38:56;7.00;23.10
48328;DHT22;34136;51.022;7.082;2023-02-11T11:42:04;7.10;23.50
48328;DHT22;34136;51.022;7.082;2023-02-11T11:44:58;7.10;23.40
48328;DHT22;34136;51.022;7.082;2023-02-11T11:48:00;7.10;23.20
48328;DHT22;34136;51.022;7.082;2023-02-11T11:51:09;7.20;23.30
48328;DHT22;34136;51.022;7.082;2023-02-11T11:54:04;7.20;23.10
48328;DHT22;34136;51.022;7.082;2023-02-11T11:57:10;7.20;22.80
48328;DHT22;34136;51.022;7.082;2023-02-11T12:15:12;7.20;22.90
48328;DHT22;34136;51.022;7.082;2023-02-11T12:32:53;7.20;23.10
48328;DHT22;34136;51.022;7.082;2023-02-11T12:46:49;7.20;22.90
48328;DHT22;34136;51.022;7.082;2023-02-11T12:49:57;7.30;23.20
48328;DHT22;34136;51.022;7.082;2023-02-11T12:52:52;7.30;23.20
48328;DHT22;34136;51.022;7.082;2023-02-11T12:55:45;7.30;23.10
48328;DHT22;34136;51.022;7.082;2023-02-11T12:58:56;7.30;22.90
48328;DHT22;34136;51.022;7.082;2023-02-11T13:08:36;7.30;22.60
48328;DHT22;34136;51.022;7.082;2023-02-11T13:11:50;7.40;22.90
48328;DHT22;34136;51.022;7.082;2023-02-11T13:14:42;7.40;22.60
48328;DHT22;34136;51.022;7.082;2023-02-11T13:27:16;7.40;22.50
48328;DHT22;34136;51.022;7.082;2023-02-11T13:30:27;7.40;22.70
48328;DHT22;34136;51.022;7.082;2023-02-11T13:33:36;7.40;22.60
48328;DHT22;34136;51.022;7.082;2023-02-11T13:36:43;7.50;22.90
48328;DHT22;34136;51.022;7.082;2023-02-11T13:40:00;7.50;22.30
48328;DHT22;34136;51.022;7.082;2023-02-11T13:43:28;7.50;22.00
48328;DHT22;34136;51.022;7.082;2023-02-11T13:49:55;7.50;22.70
48328;DHT22;34136;51.022;7.082;2023-02-11T13:52:45;7.50;23.00
48328;DHT22;34136;51.022;7.082;2023-02-11T13:55:32;7.50;22.90
48328;DHT22;34136;51.022;7.082;2023-02-11T14:01:39;7.60;22.50
48328;DHT22;34136;51.022;7.082;2023-02-11T14:04:25;7.70;22.40
48328;DHT22;34136;51.022;7.082;2023-02-11T14:07:30;7.60;21.90
48328;DHT22;34136;51.022;7.082;2023-02-11T14:13:35;7.70;21.80
48328;DHT22;34136;51.022;7.082;2023-02-11T14:16:22;7.60;22.10
48328;DHT22;34136;51.022;7.082;2023-02-11T14:19:09;7.60;22.00
48328;DHT22;34136;51.022;7.082;2023-02-11T14:22:01;7.60;22.10
48328;DHT22;34136;51.022;7.082;2023-02-11T14:24:59;7.70;22.40
48328;DHT22;34136;51.022;7.082;2023-02-11T14:28:00;7.70;22.30
48328;DHT22;34136;51.022;7.082;2023-02-11T14:31:40;7.70;22.40
48328;DHT22;34136;51.022;7.082;2023-02-11T14:34:19;7.80;22.10
48328;DHT22;34136;51.022;7.082;2023-02-11T14:40:31;7.80;21.60
48328;DHT22;34136;51.022;7.082;2023-02-11T14:43:40;7.90;21.50
48328;DHT22;34136;51.022;7.082;2023-02-11T14:46:35;7.90;20.90
48328;DHT22;34136;51.022;7.082;2023-02-11T14:49:30;7.90;21.00
48328;DHT22;34136;51.022;7.082;2023-02-11T14:52:32;8.00;20.90
48328;DHT22;34136;51.022;7.082;2023-02-11T14:55:47;8.00;20.60
48328;DHT22;34136;51.022;7.082;2023-02-11T14:58:59;8.00;20.30
48328;DHT22;34136;51.022;7.082;2023-02-11T15:01:56;7.90;20.70
48328;DHT22;34136;51.022;7.082;2023-02-11T15:04:42;7.90;20.50
48328;DHT22;34136;51.022;7.082;2023-02-11T15:07:32;7.90;21.10
48328;DHT22;34136;51.022;7.082;2023-02-11T15:10:43;7.90;21.10
48328;DHT22;34136;51.022;7.082;2023-02-11T15:13:31;8.00;20.90
48328;DHT22;34136;51.022;7.082;2023-02-11T15:16:26;7.90;20.70
48328;DHT22;34136;51.022;7.082;2023-02-11T15:19:28;8.00;21.20
48328;DHT22;34136;51.022;7.082;2023-02-11T15:22:23;7.90;21.30
48328;DHT22;34136;51.022;7.082;2023-02-11T15:25:17;8.00;21.00
48328;DHT22;34136;51.022;7.082;2023-02-11T15:28:20;8.00;20.60
48328;DHT22;34136;51.022;7.082;2023-02-11T15:31:19;8.10;20.50
48328;DHT22;34136;51.022;7.082;2023-02-11T15:34:11;8.10;20.30
48328;DHT22;34136;51.022;7.082;2023-02-11T15:36:57;8.10;20.10
48328;DHT22;34136;51.022;7.082;2023-02-11T15:39:44;8.10;20.00
48328;DHT22;34136;51.022;7.082;2023-02-11T15:42:30;8.10;20.00
48328;DHT22;34136;51.022;7.082;2023-02-11T15:45:22;8.20;19.70
48328;DHT22;34136;51.022;7.082;2023-02-11T15:48:13;8.20;19.70
48328;DHT22;34136;51.022;7.082;2023-02-11T15:51:44;8.10;19.30
48328;DHT22;34136;51.022;7.082;2023-02-11T15:55:05;8.10;19.90
48328;DHT22;34136;51.022;7.082;2023-02-11T15:58:22;8.20;19.80
48328;DHT22;34136;51.022;7.082;2023-02-11T16:01:10;8.10;20.00
48328;DHT22;34136;51.022;7.082;2023-02-11T16:03:56;8.10;20.00
48328;DHT22;34136;51.022;7.082;2023-02-11T16:06:48;8.10;19.80
48328;DHT22;34136;51.022;7.082;2023-02-11T16:09:41;8.00;20.00
48328;DHT22;34136;51.022;7.082;2023-02-11T16:12:34;8.00;20.60
48328;DHT22;34136;51.022;7.082;2023-02-11T16:15:52;8.00;20.50
48328;DHT22;34136;51.022;7.082;2023-02-11T16:18:54;7.90;20.30
48328;DHT22;34136;51.022;7.082;2023-02-11T16:21:43;7.90;21.10
48328;DHT22;34136;51.022;7.082;2023-02-11T16:24:31;8.00;20.70
48328;DHT22;34136;51.022;7.082;2023-02-11T16:27:32;8.00;20.50
48328;DHT22;34136;51.022;7.082;2023-02-11T16:30:33;8.00;20.10
48328;DHT22;34136;51.022;7.082;2023-02-11T16:33:34;8.00;20.20
48328;DHT22;34136;51.022;7.082;2023-02-11T16:36:30;8.00;20.00
48328;DHT22;34136;51.022;7.082;2023-02-11T16:39:21;8.00;20.00
48328;DHT22;34136;51.022;7.082;2023-02-11T16:42:08;8.10;20.00
48328;DHT22;34136;51.022;7.082;2023-02-11T16:45:01;8.00;19.60
48328;DHT22;34136;51.022;7.082;2023-02-11T16:47:47;8.10;19.60
48328;DHT22;34136;51.022;7.082;2023-02-11T16:50:34;8.10;19.30
48328;DHT22;34136;51.022;7.082;2023-02-11T16:53:29;8.10;19.20
48328;DHT22;34136;51.022;7.082;2023-02-11T16:56:17;8.10;19.20
48328;DHT22;34136;51.022;7.082;2023-02-11T16:59:26;8.10;19.30
48328;DHT22;34136;51.022;7.082;2023-02-11T17:02:45;8.10;19.30
48328;DHT22;34136;51.022;7.082;2023-02-11T17:05:34;8.10;19.50
48328;DHT22;34136;51.022;7.082;2023-02-11T17:08:22;8.00;19.50
48328;DHT22;34136;51.022;7.082;2023-02-11T17:11:08;8.00;19.30
48328;DHT22;34136;51.022;7.082;2023-02-11T17:14:05;8.10;19.10
48328;DHT22;34136;51.022;7.082;2023-02-11T17:17:26;8.00;18.80
48328;DHT22;34136;51.022;7.082;2023-02-11T17:20:18;8.00;19.10
48328;DHT22;34136;51.022;7.082;2023-02-11T17:26:11;8.00;19.10
48328;DHT22;34136;51.022;7.082;2023-02-11T17:28:57;8.00;19.20
48328;DHT22;34136;51.022;7.082;2023-02-11T17:31:44;8.00;19.90
48328;DHT22;34136;51.022;7.082;2023-02-11T17:34:33;8.00;19.30
48328;DHT22;34136;51.022;7.082;2023-02-11T17:37:23;8.00;19.00
48328;DHT22;34136;51.022;7.082;2023-02-11T17:40:14;8.00;18.80
48328;DHT22;34136;51.022;7.082;2023-02-11T17:43:06;8.00;18.70
48328;DHT22;34136;51.022;7.082;2023-02-11T17:45:52;8.00;19.00
48328;DHT22;34136;51.022;7.082;2023-02-11T17:48:39;8.00;19.00
48328;DHT22;34136;51.022;7.082;2023-02-11T17:51:37;7.90;19.40
48328;DHT22;34136;51.022;7.082;2023-02-11T17:55:16;8.00;19.50
48328;DHT22;34136;51.022;7.082;2023-02-11T17:58:07;8.00;19.60
48328;DHT22;34136;51.022;7.082;2023-02-11T18:00:57;7.90;19.70
48328;DHT22;34136;51.022;7.082;2023-02-11T18:03:46;7.90;19.60
48328;DHT22;34136;51.022;7.082;2023-02-11T18:06:33;7.90;20.00
48328;DHT22;34136;51.022;7.082;2023-02-11T18:09:25;7.90;20.20
48328;DHT22;34136;51.022;7.082;2023-02-11T18:12:18;8.00;20.10
48328;DHT22;34136;51.022;7.082;2023-02-11T18:15:05;7.90;20.00
48328;DHT22;34136;51.022;7.082;2023-02-11T18:17:56;7.90;20.40
48328;DHT22;34136;51.022;7.082;2023-02-11T18:20:42;7.90;20.20
48328;DHT22;34136;51.022;7.082;2023-02-11T18:23:29;8.00;20.10
48328;DHT22;34136;51.022;7.082;2023-02-11T18:26:22;7.90;20.00
48328;DHT22;34136;51.022;7.082;2023-02-11T18:29:09;7.90;20.00
48328;DHT22;34136;51.022;7.082;2023-02-11T18:31:57;7.90;20.20
48328;DHT22;34136;51.022;7.082;2023-02-11T18:34:43;8.00;20.20
48328;DHT22;34136;51.022;7.082;2023-02-11T18:37:29;7.90;20.00
48328;DHT22;34136;51.022;7.082;2023-02-11T18:40:28;8.00;20.00
48328;DHT22;34136;51.022;7.082;2023-02-11T18:43:13;8.00;19.80
48328;DHT22;34136;51.022;7.082;2023-02-11T18:46:05;8.00;19.70
48328;DHT22;34136;51.022;7.082;2023-02-11T18:48:51;8.00;19.70
48328;DHT22;34136;51.022;7.082;2023-02-11T18:52:06;8.00;19.40
48328;DHT22;34136;51.022;7.082;2023-02-11T18:54:52;7.90;20.00
48328;DHT22;34136;51.022;7.082;2023-02-11T18:57:38;7.90;20.00
48328;DHT22;34136;51.022;7.082;2023-02-11T19:00:47;7.90;19.90
48328;DHT22;34136;51.022;7.082;2023-02-11T19:03:34;7.90;19.80
48328;DHT22;34136;51.022;7.082;2023-02-11T19:06:25;7.90;20.00
48328;DHT22;34136;51.022;7.082;2023-02-11T19:09:16;7.90;19.80
48328;DHT22;34136;51.022;7.082;2023-02-11T19:16:14;7.90;19.80
48328;DHT22;34136;51.022;7.082;2023-02-11T19:19:02;7.90;20.00
48328;DHT22;34136;51.022;7.082;2023-02-11T19:21:50;7.90;20.20
48328;DHT22;34136;51.022;7.082;2023-02-11T19:24:40;7.90;20.00
48328;DHT22;34136;51.022;7.082;2023-02-11T19:27:29;7.90;20.30
48328;DHT22;34136;51.022;7.082;2023-02-11T19:30:18;7.80;20.60
48328;DHT22;34136;51.022;7.082;2023-02-11T19:33:07;7.90;20.70
48328;DHT22;34136;51.022;7.082;2023-02-11T19:36:00;7.90;20.40
48328;DHT22;34136;51.022;7.082;2023-02-11T19:38:51;7.90;20.00
48328;DHT22;34136;51.022;7.082;2023-02-11T19:41:43;7.80;20.10
48328;DHT22;34136;51.022;7.082;2023-02-11T19:44:33;7.80;20.50
48328;DHT22;34136;51.022;7.082;2023-02-11T19:47:19;7.80;19.80
48328;DHT22;34136;51.022;7.082;2023-02-11T19:50:09;7.80;19.70
48328;DHT22;34136;51.022;7.082;2023-02-11T19:52:58;7.80;20.00
48328;DHT22;34136;51.022;7.082;2023-02-11T19:55:47;7.70;20.30
48328;DHT22;34136;51.022;7.082;2023-02-11T19:58:35;7.80;20.00
48328;DHT22;34136;51.022;7.082;2023-02-11T20:01:27;7.70;20.00
48328;DHT22;34136;51.022;7.082;2023-02-11T20:04:16;7.70;20.10
48328;DHT22;34136;51.022;7.082;2023-02-11T20:07:02;7.70;20.00
48328;DHT22;34136;51.022;7.082;2023-02-11T20:09:49;7.70;20.00
48328;DHT22;34136;51.022;7.082;2023-02-11T20:12:38;7.70;20.00
48328;DHT22;34136;51.022;7.082;2023-02-11T20:15:24;7.70;19.90
48328;DHT22;34136;51.022;7.082;2023-02-11T20:18:13;7.70;19.90
48328;DHT22;34136;51.022;7.082;2023-02-11T20:21:08;7.70;19.80
48328;DHT22;34136;51.022;7.082;2023-02-11T20:23:55;7.70;19.80
48328;DHT22;34136;51.022;7.082;2023-02-11T20:26:41;7.70;20.00
48328;DHT22;34136;51.022;7.082;2023-02-11T20:29:28;7.70;20.00
48328;DHT22;34136;51.022;7.082;2023-02-11T20:32:17;7.60;20.10
48328;DHT22;34136;51.022;7.082;2023-02-11T20:35:04;7.60;20.20
48328;DHT22;34136;51.022;7.082;2023-02-11T20:37:51;7.60;20.10
48328;DHT22;34136;51.022;7.082;2023-02-11T20:40:37;7.60;20.10
48328;DHT22;34136;51.022;7.082;2023-02-11T20:43:24;7.60;20.10
48328;DHT22;34136;51.022;7.082;2023-02-11T20:46:13;7.60;20.10
48328;DHT22;34136;51.022;7.082;2023-02-11T20:49:00;7.60;20.10
48328;DHT22;34136;51.022;7.082;2023-02-11T20:51:48;7.60;20.00
48328;DHT22;34136;51.022;7.082;2023-02-11T20:54:35;7.60;20.40
48328;DHT22;34136;51.022;7.082;2023-02-11T20:57:23;7.60;20.50
48328;DHT22;34136;51.022;7.082;2023-02-11T21:00:10;7.60;20.40
48328;DHT22;34136;51.022;7.082;2023-02-11T21:02:56;7.60;20.10
48328;DHT22;34136;51.022;7.082;2023-02-11T21:05:43;7.60;20.10
48328;DHT22;34136;51.022;7.082;2023-02-11T21:08:29;7.60;20.20
48328;DHT22;34136;51.022;7.082;2023-02-11T21:11:16;7.60;20.00
48328;DHT22;34136;51.022;7.082;2023-02-11T21:14:02;7.50;19.90
48328;DHT22;34136;51.022;7.082;2023-02-11T21:16:50;7.50;20.00
48328;DHT22;34136;51.022;7.082;2023-02-11T21:19:36;7.50;20.30
48328;DHT22;34136;51.022;7.082;2023-02-11T21:22:23;7.60;20.40
48328;DHT22;34136;51.022;7.082;2023-02-11T21:25:12;7.60;20.30
48328;DHT22;34136;51.022;7.082;2023-02-11T21:27:58;7.50;20.20
48328;DHT22;34136;51.022;7.082;2023-02-11T21:30:45;7.50;20.40